Time;durP1;ratioP1;P1;durP2;ratioP2;P2;SDS_P1;SDS_P2;PMS_P1;PMS_P2;Temp;Humidity;BMP_temperature;BMP_pressure;BME280_temperature;BME280_humidity;BME280_pressure;Samples;Min_cycle;Max_cycle;Signal;HPM_P1;HPM_P2
2022/03/13 00:02:55;;;;;;;5.10;4.60;;;15.10;41.70;;;;;;5130240;27;20357;-72
2022/03/13 00:05:22;;;;;;;4.53;4.13;;;15.10;41.70;;;;;;5146225;27;20096;-67
2022/03/13 00:07:48;;;;;;;4.97;4.40;;;15.10;41.70;;;;;;5128955;27;20072;-67
2022/03/13 00:10:18;;;;;;;5.07;4.68;;;15.00;41.70;;;;;;5128954;28;20630;-74
2022/03/13 00:12:47;;;;;;;5.00;4.50;;;15.00;41.70;;;;;;5129154;28;20152;-72
2022/03/13 00:15:14;;;;;;;4.88;4.35;;;15.10;41.70;;;;;;5128904;28;20035;-74
2022/03/13 00:17:41;;;;;;;5.07;4.45;;;15.00;41.70;;;;;;5128767;28;20039;-73
2022/03/13 00:20:08;;;;;;;5.72;4.88;;;15.00;41.70;;;;;;5128706;28;20039;-67
2022/03/13 00:22:37;;;;;;;6.25;4.32;;;15.00;41.70;;;;;;5128733;28;20440;-66
2022/03/13 00:25:08;;;;;;;4.85;4.32;;;15.00;41.70;;;;;;5129880;27;20115;-72
2022/03/13 00:27:34;;;;;;;5.38;4.88;;;15.00;41.70;;;;;;5128657;28;20106;-74
2022/03/13 00:30:02;;;;;;;5.25;4.35;;;15.00;41.70;;;;;;5128332;27;20126;-72
2022/03/13 00:32:28;;;;;;;5.80;4.85;;;15.00;41.70;;;;;;5129864;27;20406;-74
2022/03/13 00:34:53;;;;;;;5.30;4.38;;;15.00;41.70;;;;;;5128615;28;20044;-73
2022/03/13 00:37:19;;;;;;;4.78;4.35;;;15.00;41.80;;;;;;5128405;27;20497;-71
2022/03/13 00:39:49;;;;;;;4.28;3.88;;;15.00;41.70;;;;;;5128285;28;20043;-67
2022/03/13 00:42:17;;;;;;;4.77;4.37;;;15.00;41.80;;;;;;5129578;27;20044;-72
2022/03/13 00:44:43;;;;;;;5.10;4.63;;;15.00;41.80;;;;;;5128353;28;20055;-74
2022/03/13 00:47:12;;;;;;;5.25;4.07;;;15.00;41.80;;;;;;5128452;28;20035;-72
2022/03/13 00:49:40;;;;;;;5.05;4.55;;;15.00;41.80;;;;;;5128248;28;20114;-72
2022/03/13 00:52:06;;;;;;;5.10;4.38;;;14.90;41.70;;;;;;5128111;28;20578;-67
2022/03/13 00:54:33;;;;;;;5.18;4.68;;;14.90;41.70;;;;;;5128067;28;20046;-72
2022/03/13 00:56:59;;;;;;;4.85;4.32;;;14.90;41.80;;;;;;5129340;27;20043;-72
2022/03/13 00:59:25;;;;;;;5.85;4.95;;;14.90;41.70;;;;;;5127924;28;20039;-74
2022/03/13 01:01:50;;;;;;;5.53;4.22;;;14.90;41.80;;;;;;5128738;28;20059;-72
2022/03/13 01:04:17;;;;;;;4.72;4.32;;;14.90;41.80;;;;;;5129061;28;20043;-70
2022/03/13 01:06:43;;;;;;;5.18;4.78;;;14.90;41.80;;;;;;5128124;28;20052;-70
2022/03/13 01:09:09;;;;;;;4.53;4.00;;;14.90;41.80;;;;;;5129172;28;20039;-70
2022/03/13 01:11:35;;;;;;;4.25;3.85;;;14.90;41.80;;;;;;5128363;28;20367;-74
2022/03/13 01:14:01;;;;;;;5.05;4.55;;;14.90;41.80;;;;;;5115351;28;20450;-72
2022/03/13 01:16:33;;;;;;;4.40;4.00;;;14.90;41.80;;;;;;5115148;28;20375;-72
2022/03/13 01:18:59;;;;;;;4.80;4.40;;;14.90;41.80;;;;;;5115233;28;20483;-72
2022/03/13 01:21:27;;;;;;;4.93;4.30;;;14.90;41.80;;;;;;5113743;28;20478;-69
2022/03/13 01:26:52;;;;;;;5.25;4.55;;;14.90;41.90;;;;;;5089418;28;20433;-70
2022/03/13 01:29:17;;;;;;;4.38;3.97;;;14.80;41.80;;;;;;5088427;28;20123;-70
2022/03/13 01:31:46;;;;;;;4.40;4.00;;;14.90;41.80;;;;;;5088286;28;20539;-72
2022/03/13 01:34:25;;;;;;;4.03;3.30;;;14.90;41.90;;;;;;5088434;28;20139;-74
2022/03/13 01:36:50;;;;;;;4.30;3.90;;;14.80;41.80;;;;;;5088229;28;20101;-67
2022/03/13 01:39:16;;;;;;;4.15;3.72;;;14.80;41.80;;;;;;5089248;28;20458;-68
2022/03/13 01:41:44;;;;;;;4.65;3.67;;;14.80;41.80;;;;;;5088111;28;20044;-67
2022/03/13 01:44:10;;;;;;;4.82;4.15;;;14.80;41.80;;;;;;5088606;28;20426;-74
2022/03/13 01:46:35;;;;;;;4.03;3.63;;;14.80;41.80;;;;;;5088583;28;20090;-74
2022/03/13 01:49:05;;;;;;;4.53;4.13;;;14.80;41.80;;;;;;5087740;28;20047;-72
2022/03/13 01:51:32;;;;;;;4.15;3.75;;;14.80;41.80;;;;;;5087740;28;20044;-72
2022/03/13 01:54:04;;;;;;;4.53;3.90;;;14.80;41.80;;;;;;5088841;28;20079;-72
2022/03/13 01:56:31;;;;;;;4.93;4.45;;;14.80;41.80;;;;;;5087669;28;20048;-74
2022/03/13 01:58:57;;;;;;;3.72;3.42;;;14.80;41.80;;;;;;5087875;28;20075;-67
2022/03/13 02:01:26;;;;;;;5.93;3.78;;;14.80;41.80;;;;;;5087998;28;20063;-72
2022/03/13 02:03:53;;;;;;;3.58;3.28;;;14.80;41.80;;;;;;5086741;28;20056;-72
2022/03/13 02:06:21;;;;;;;4.15;3.75;;;14.80;41.80;;;;;;5087172;28;20661;-74
2022/03/13 02:08:48;;;;;;;3.03;2.80;;;14.80;41.80;;;;;;5088843;28;20044;-72
2022/03/13 02:11:20;;;;;;;4.60;3.67;;;14.80;41.80;;;;;;5088650;28;20093;-73
2022/03/13 02:13:51;;;;;;;3.85;3.42;;;14.80;41.80;;;;;;5087228;28;20115;-72
2022/03/13 02:16:19;;;;;;;4.75;3.67;;;14.80;41.80;;;;;;5088584;28;20041;-74
2022/03/13 02:18:50;;;;;;;3.80;3.50;;;14.80;41.80;;;;;;5087277;28;20051;-72
2022/03/13 02:21:17;;;;;;;3.88;3.50;;;14.80;41.80;;;;;;5087436;28;20040;-68
2022/03/13 02:23:43;;;;;;;4.10;3.70;;;14.80;41.80;;;;;;5088511;28;20043;-74
2022/03/13 02:26:09;;;;;;;4.18;3.55;;;14.80;41.80;;;;;;5086832;28;20153;-72
2022/03/13 02:28:37;;;;;;;4.18;3.78;;;14.80;41.70;;;;;;5086988;28;20087;-71
2022/03/13 02:31:11;;;;;;;4.20;3.78;;;14.80;41.80;;;;;;5088417;28;20044;-67
2022/03/13 02:33:38;;;;;;;4.70;3.95;;;14.80;41.80;;;;;;5087184;28;20051;-72
2022/03/13 02:36:05;;;;;;;4.45;3.53;;;14.80;41.70;;;;;;5084897;28;20079;-72
2022/03/13 02:38:37;;;;;;;4.28;3.47;;;14.80;41.80;;;;;;5074117;28;20039;-67
2022/03/13 02:41:03;;;;;;;3.55;3.05;;;14.80;41.70;;;;;;5074595;28;20100;-72
2022/03/13 02:43:29;;;;;;;3.95;3.55;;;14.80;41.70;;;;;;5074568;28;20111;-72
2022/03/13 02:45:54;;;;;;;3.40;3.05;;;14.70;41.70;;;;;;5074787;28;20127;-72
2022/03/13 02:48:21;;;;;;;3.22;2.92;;;14.70;41.70;;;;;;5073433;28;20647;-68
2022/03/13 02:50:46;;;;;;;4.45;3.92;;;14.70;41.70;;;;;;5073381;28;20033;-74
2022/03/13 02:53:18;;;;;;;4.65;3.35;;;14.70;41.70;;;;;;5074585;28;20037;-69
2022/03/13 02:55:45;;;;;;;3.50;3.22;;;14.70;41.70;;;;;;5074438;28;20036;-72
2022/03/13 02:58:11;;;;;;;4.20;3.65;;;14.70;41.70;;;;;;5074341;28;20085;-72
2022/03/13 03:00:44;;;;;;;4.18;3.75;;;14.70;41.70;;;;;;5072958;28;20564;-72
2022/03/13 03:03:12;;;;;;;3.65;3.35;;;14.70;41.70;;;;;;5073167;28;20392;-67
2022/03/13 03:05:38;;;;;;;4.05;3.65;;;14.70;41.70;;;;;;5072744;28;20040;-72
2022/03/13 03:08:05;;;;;;;5.03;3.83;;;14.70;41.70;;;;;;5074428;28;20086;-67
2022/03/13 03:10:30;;;;;;;4.43;4.03;;;14.70;41.70;;;;;;5072998;28;20044;-74
2022/03/13 03:12:56;;;;;;;5.43;3.83;;;14.70;41.80;;;;;;5073000;28;20036;-72
2022/03/13 03:15:23;;;;;;;4.70;3.67;;;14.70;41.70;;;;;;5073930;28;20093;-74
2022/03/13 03:17:48;;;;;;;4.45;3.97;;;14.70;41.70;;;;;;5073861;28;20127;-74
2022/03/13 03:20:14;;;;;;;4.38;3.90;;;14.70;41.70;;;;;;5073876;28;20067;-67
2022/03/13 03:22:40;;;;;;;3.95;3.65;;;14.70;41.70;;;;;;5072601;28;20476;-74
2022/03/13 03:25:06;;;;;;;3.97;3.58;;;14.70;41.70;;;;;;5072065;28;20052;-72
2022/03/13 03:27:32;;;;;;;4.82;4.40;;;14.60;41.70;;;;;;5072450;28;20052;-72
2022/03/13 03:30:02;;;;;;;4.28;3.78;;;14.70;41.70;;;;;;5072254;28;20051;-72
2022/03/13 03:32:28;;;;;;;5.00;4.00;;;14.70;41.70;;;;;;5072363;28;20051;-69
2022/03/13 03:34:53;;;;;;;4.15;3.75;;;14.60;41.70;;;;;;5072278;28;20052;-69
2022/03/13 03:37:19;;;;;;;4.00;3.70;;;14.60;41.70;;;;;;5073711;28;20094;-74
2022/03/13 03:39:45;;;;;;;4.75;4.35;;;14.60;41.70;;;;;;5072417;28;20127;-68
2022/03/13 03:42:10;;;;;;;3.67;3.35;;;14.60;41.70;;;;;;5073481;28;20123;-67
2022/03/13 03:44:36;;;;;;;5.38;4.63;;;14.60;41.70;;;;;;5072214;28;20128;-74
2022/03/13 03:47:02;;;;;;;4.40;4.00;;;14.60;41.70;;;;;;5072634;28;20075;-72
2022/03/13 03:49:33;;;;;;;4.70;3.70;;;14.60;41.70;;;;;;5072823;28;20575;-71
2022/03/13 03:51:59;;;;;;;5.13;4.63;;;14.50;41.70;;;;;;5073292;28;20111;-72
2022/03/13 03:54:27;;;;;;;4.32;3.92;;;14.60;41.70;;;;;;5072446;28;20128;-66
2022/03/13 03:56:53;;;;;;;4.93;4.43;;;14.60;41.80;;;;;;5071365;28;20530;-72
2022/03/13 03:59:20;;;;;;;3.92;3.63;;;14.50;41.70;;;;;;5072875;28;20040;-74
2022/03/13 04:01:45;;;;;;;4.75;4.30;;;14.50;41.70;;;;;;5071749;28;20036;-67
2022/03/13 04:04:11;;;;;;;4.60;4.22;;;14.50;41.70;;;;;;5071686;28;20119;-72
2022/03/13 04:06:38;;;;;;;7.40;5.20;;;14.50;41.70;;;;;;5072806;28;20039;-69
2022/03/13 04:09:08;;;;;;;3.70;3.40;;;14.50;41.70;;;;;;5071931;28;20044;-74
2022/03/13 04:11:36;;;;;;;4.57;4.15;;;14.50;41.80;;;;;;5072925;28;20032;-72
2022/03/13 04:14:03;;;;;;;4.72;4.28;;;14.50;41.80;;;;;;5071481;28;20044;-72
2022/03/13 04:16:29;;;;;;;4.53;4.13;;;14.50;41.80;;;;;;5072614;28;20067;-72
2022/03/13 04:18:55;;;;;;;5.45;4.78;;;14.50;41.80;;;;;;5071408;28;20074;-72
2022/03/13 04:21:22;;;;;;;4.47;4.07;;;14.50;41.90;;;;;;5071558;28;20044;-67
2022/03/13 04:23:49;;;;;;;5.53;4.82;;;14.40;41.80;;;;;;5071577;28;20080;-68
2022/03/13 04:26:15;;;;;;;5.07;4.55;;;14.40;41.90;;;;;;5072290;28;20067;-68
2022/03/13 04:28:45;;;;;;;5.00;4.50;;;14.40;41.90;;;;;;5072454;28;20397;-74
2022/03/13 04:31:13;;;;;;;5.25;4.75;;;14.40;41.90;;;;;;5071237;28;20052;-74
2022/03/13 04:33:40;;;;;;;4.63;4.22;;;14.40;41.90;;;;;;5071098;28;20055;-67
2022/03/13 04:36:10;;;;;;;5.47;4.57;;;14.40;41.90;;;;;;5072561;28;20044;-74
2022/03/13 04:38:36;;;;;;;4.43;3.92;;;14.30;41.90;;;;;;5071043;28;20040;-71
2022/03/13 04:41:01;;;;;;;4.53;4.13;;;14.30;41.90;;;;;;5071009;28;20032;-72
2022/03/13 04:43:27;;;;;;;5.20;4.68;;;14.30;41.90;;;;;;5071261;28;20040;-74
2022/03/13 04:45:55;;;;;;;4.60;4.20;;;14.30;42.00;;;;;;5070478;28;20563;-74
2022/03/13 04:48:24;;;;;;;4.97;4.57;;;14.30;42.00;;;;;;5070846;28;20040;-74
2022/03/13 04:50:49;;;;;;;4.55;4.15;;;14.30;42.10;;;;;;5071334;28;20118;-67
2022/03/13 04:53:15;;;;;;;5.18;4.70;;;14.30;42.10;;;;;;5072285;28;20068;-74
2022/03/13 04:55:42;;;;;;;4.53;4.13;;;14.30;42.10;;;;;;5070910;28;20052;-67
2022/03/13 04:58:09;;;;;;;5.50;4.15;;;14.30;42.10;;;;;;5072122;28;20048;-72
2022/03/13 05:00:37;;;;;;;4.13;3.75;;;14.30;42.10;;;;;;5071795;28;20037;-67
2022/03/13 05:03:04;;;;;;;4.53;4.13;;;14.30;42.10;;;;;;5071981;28;20521;-74
2022/03/13 05:05:30;;;;;;;5.07;4.57;;;14.20;42.10;;;;;;5072160;28;20123;-73
2022/03/13 05:07:56;;;;;;;4.72;3.95;;;14.20;42.10;;;;;;5071913;28;20076;-72
2022/03/13 05:10:22;;;;;;;4.32;3.92;;;14.20;42.10;;;;;;5070065;28;20083;-72
2022/03/13 05:12:48;;;;;;;4.68;4.10;;;14.20;42.10;;;;;;5071724;28;20064;-72
2022/03/13 05:15:14;;;;;;;4.97;4.45;;;14.20;42.10;;;;;;5071830;28;20438;-67
2022/03/13 05:17:40;;;;;;;5.47;4.88;;;14.20;42.10;;;;;;5071740;28;20043;-69
2022/03/13 05:20:10;;;;;;;4.85;4.45;;;14.20;42.10;;;;;;5072094;28;20442;-72
2022/03/13 05:22:36;;;;;;;;;;;14.20;42.10;;;;;;5072318;28;20086;-72
2022/03/13 05:25:02;;;;;;;6.03;4.65;;;14.10;42.30;;;;;;5071422;28;20265;-71
2022/03/13 05:27:27;;;;;;;5.45;4.28;;;14.20;42.10;;;;;;5071865;28;20530;-72
2022/03/13 05:29:53;;;;;;;6.03;4.50;;;14.10;42.10;;;;;;5071656;28;20033;-74
2022/03/13 05:32:18;;;;;;;5.10;4.53;;;14.10;42.20;;;;;;5070664;28;20362;-68
2022/03/13 05:34:46;;;;;;;5.40;4.78;;;14.10;42.20;;;;;;5071678;28;20120;-72
2022/03/13 05:37:11;;;;;;;4.55;4.15;;;14.10;42.20;;;;;;5071639;28;20074;-72
2022/03/13 05:39:37;;;;;;;5.95;5.32;;;14.10;42.20;;;;;;5070604;28;20686;-72
2022/03/13 05:42:06;;;;;;;4.80;4.40;;;14.10;42.20;;;;;;5071683;28;20503;-72
2022/03/13 05:44:33;;;;;;;5.40;4.60;;;14.10;42.20;;;;;;5070473;28;20129;-71
2022/03/13 05:47:02;;;;;;;4.80;4.32;;;14.10;42.20;;;;;;5069626;28;20069;-72
2022/03/13 05:49:28;;;;;;;5.80;4.88;;;14.00;42.30;;;;;;5071714;28;20441;-73
2022/03/13 05:51:54;;;;;;;5.72;5.18;;;14.00;42.20;;;;;;5070322;28;20553;-72
2022/03/13 05:54:20;;;;;;;6.20;5.13;;;14.00;42.20;;;;;;5070348;28;20076;-73
2022/03/13 05:56:46;;;;;;;6.65;5.78;;;14.00;42.20;;;;;;5070539;28;20040;-72
2022/03/13 05:59:12;;;;;;;5.75;4.82;;;14.00;42.20;;;;;;5071544;28;20562;-70
2022/03/13 06:01:38;;;;;;;5.53;5.03;;;14.00;42.20;;;;;;5071326;28;20047;-71
2022/03/13 06:04:05;;;;;;;6.45;5.10;;;14.00;42.30;;;;;;5071642;28;20097;-72
2022/03/13 06:06:32;;;;;;;5.78;5.15;;;14.00;42.30;;;;;;5068783;28;20068;-67
2022/03/13 06:09:00;;;;;;;5.82;5.25;;;14.00;42.30;;;;;;5071030;28;20044;-72
2022/03/13 06:11:26;;;;;;;6.63;5.60;;;14.00;42.30;;;;;;5070847;28;20033;-72
2022/03/13 06:13:51;;;;;;;5.75;5.22;;;13.90;42.20;;;;;;5075166;28;20388;-73
2022/03/13 06:16:18;;;;;;;5.93;5.07;;;13.90;42.20;;;;;;5073615;28;20044;-72
2022/03/13 06:18:45;;;;;;;6.35;5.78;;;13.90;42.20;;;;;;5075015;28;20077;-72
2022/03/13 06:21:11;;;;;;;5.60;5.10;;;13.90;42.20;;;;;;5074888;28;20033;-71
2022/03/13 06:23:37;;;;;;;5.70;5.20;;;13.90;42.20;;;;;;5073687;28;20408;-67
2022/03/13 06:26:03;;;;;;;5.35;4.85;;;13.90;42.20;;;;;;5074284;28;20052;-67
2022/03/13 06:28:30;;;;;;;5.75;5.25;;;13.90;42.20;;;;;;5074809;28;20063;-72
2022/03/13 06:30:56;;;;;;;5.43;4.88;;;13.90;42.20;;;;;;5073673;28;20396;-67
2022/03/13 06:33:22;;;;;;;5.57;5.07;;;13.90;42.10;;;;;;5073444;28;20044;-67
2022/03/13 06:35:48;;;;;;;6.78;6.07;;;13.90;42.20;;;;;;5074646;28;20480;-67
2022/03/13 06:38:14;;;;;;;6.00;5.40;;;13.90;42.20;;;;;;5074658;28;20171;-67
2022/03/13 06:40:39;;;;;;;5.05;4.55;;;13.90;42.10;;;;;;5073612;28;20089;-67
2022/03/13 06:43:06;;;;;;;5.55;5.05;;;13.90;42.20;;;;;;5073569;28;20492;-67
2022/03/13 06:45:32;;;;;;;6.00;4.43;;;13.90;42.00;;;;;;5073296;28;20052;-67
2022/03/13 06:47:58;;;;;;;5.80;5.13;;;13.90;42.00;;;;;;5074607;28;20047;-67
2022/03/13 06:50:23;;;;;;;5.43;4.82;;;13.90;42.00;;;;;;5073473;28;20393;-67
2022/03/13 06:52:50;;;;;;;5.03;4.53;;;13.90;42.00;;;;;;5074343;28;20032;-66
2022/03/13 06:55:17;;;;;;;5.38;4.88;;;13.90;41.90;;;;;;5074417;28;20044;-68
2022/03/13 06:57:43;;;;;;;5.28;4.60;;;13.90;41.90;;;;;;5074295;28;20045;-66
2022/03/13 07:00:11;;;;;;;4.88;4.38;;;13.90;41.90;;;;;;5074261;28;20464;-67
2022/03/13 07:02:36;;;;;;;5.60;5.03;;;13.90;41.80;;;;;;5072675;28;20045;-67
2022/03/13 07:05:02;;;;;;;5.45;4.57;;;13.90;41.80;;;;;;5072853;28;20395;-67
2022/03/13 07:07:28;;;;;;;5.68;5.03;;;13.90;41.70;;;;;;5074301;28;20127;-69
2022/03/13 07:09:57;;;;;;;6.28;5.47;;;13.90;41.70;;;;;;5074253;28;20040;-67
2022/03/13 07:12:23;;;;;;;5.35;4.80;;;13.90;41.70;;;;;;5072639;28;20449;-67
2022/03/13 07:14:49;;;;;;;5.38;4.88;;;13.90;41.70;;;;;;5072743;28;20045;-67
2022/03/13 07:17:16;;;;;;;5.18;4.68;;;14.00;41.60;;;;;;5073791;28;20039;-67
2022/03/13 07:19:45;;;;;;;5.90;5.32;;;14.00;41.60;;;;;;5072675;28;20123;-67
2022/03/13 07:22:12;;;;;;;5.03;4.53;;;14.00;41.50;;;;;;5072694;28;20055;-66
2022/03/13 07:24:39;;;;;;;5.53;4.90;;;14.00;41.50;;;;;;5073761;28;20066;-66
2022/03/13 07:27:05;;;;;;;5.38;4.88;;;14.00;41.40;;;;;;5072150;28;20068;-67
2022/03/13 07:29:34;;;;;;;5.07;4.40;;;14.00;41.40;;;;;;5072644;28;20048;-73
2022/03/13 07:31:59;;;;;;;5.25;4.75;;;14.00;41.30;;;;;;5055911;28;20037;-67
2022/03/13 07:34:27;;;;;;;5.43;4.78;;;14.00;41.20;;;;;;5073562;28;20098;-68
2022/03/13 07:36:54;;;;;;;4.70;4.18;;;14.00;41.20;;;;;;5073581;28;20127;-67
2022/03/13 07:39:21;;;;;;;5.35;4.85;;;14.00;41.20;;;;;;5072213;28;20125;-66
2022/03/13 07:41:47;;;;;;;5.20;4.75;;;14.00;41.20;;;;;;5072464;28;20077;-67
2022/03/13 07:44:13;;;;;;;4.93;4.50;;;14.00;41.10;;;;;;5073465;28;20048;-74
2022/03/13 07:46:45;;;;;;;5.28;4.40;;;14.00;41.10;;;;;;5073292;28;20483;-66
2022/03/13 07:49:10;;;;;;;5.32;4.57;;;14.00;41.10;;;;;;5073420;28;20039;-68
2022/03/13 07:51:36;;;;;;;4.85;4.35;;;14.00;41.00;;;;;;5073856;28;20036;-67
2022/03/13 07:54:02;;;;;;;5.28;4.57;;;14.10;41.10;;;;;;5073328;28;20389;-67
2022/03/13 07:56:29;;;;;;;4.93;4.43;;;14.00;41.00;;;;;;5071947;28;20102;-67
2022/03/13 07:58:55;;;;;;;4.95;4.55;;;14.00;40.90;;;;;;5071816;28;20450;-67
2022/03/13 08:01:21;;;;;;;5.07;4.57;;;14.10;40.90;;;;;;5071697;28;20120;-67
2022/03/13 08:03:47;;;;;;;4.57;4.13;;;14.10;40.90;;;;;;5072974;28;20123;-69
2022/03/13 08:06:13;;;;;;;4.75;4.22;;;14.10;40.80;;;;;;5071744;28;20040;-67
2022/03/13 08:08:39;;;;;;;5.35;4.57;;;14.10;40.70;;;;;;5073008;28;20072;-67
2022/03/13 08:11:05;;;;;;;4.60;4.20;;;14.10;40.70;;;;;;5071633;28;20064;-74
2022/03/13 08:13:30;;;;;;;6.13;5.53;;;14.10;40.60;;;;;;5071633;28;20040;-68
2022/03/13 08:15:56;;;;;;;6.63;5.10;;;14.10;41.40;;;;;;5072583;28;20050;-71
2022/03/13 08:18:26;;;;;;;4.90;4.32;;;14.10;40.60;;;;;;5071684;28;20056;-68
2022/03/13 08:20:51;;;;;;;5.07;4.35;;;14.10;40.60;;;;;;5072840;28;20048;-67
2022/03/13 08:23:17;;;;;;;5.43;4.82;;;14.10;40.50;;;;;;5071683;28;20123;-72
2022/03/13 08:25:43;;;;;;;5.15;4.68;;;14.10;40.50;;;;;;5072243;28;20401;-71
2022/03/13 08:28:09;;;;;;;5.22;4.32;;;14.10;41.20;;;;;;5071286;28;20115;-72
2022/03/13 08:30:35;;;;;;;5.63;5.13;;;14.10;40.40;;;;;;5072457;28;20043;-67
2022/03/13 08:33:05;;;;;;;4.65;4.10;;;14.10;40.40;;;;;;5072349;28;20071;-72
2022/03/13 08:35:31;;;;;;;4.22;3.83;;;14.10;40.30;;;;;;5070849;28;20540;-71
2022/03/13 08:37:57;;;;;;;5.18;4.68;;;14.10;40.30;;;;;;5071437;28;20040;-72
2022/03/13 08:40:25;;;;;;;5.03;4.43;;;14.10;40.20;;;;;;5071072;28;20048;-67
2022/03/13 08:42:52;;;;;;;4.57;4.18;;;14.10;40.20;;;;;;5071316;28;20484;-67
2022/03/13 08:45:21;;;;;;;4.65;4.20;;;14.10;40.10;;;;;;5070306;28;20053;-72
2022/03/13 08:47:47;;;;;;;4.70;4.25;;;14.10;40.00;;;;;;5072200;28;20506;-72
2022/03/13 08:50:14;;;;;;;5.15;4.65;;;14.10;40.00;;;;;;5071199;28;20048;-72
2022/03/13 08:52:40;;;;;;;5.60;4.93;;;14.10;39.90;;;;;;5072585;28;20400;-71
2022/03/13 08:55:08;;;;;;;5.60;3.88;;;14.10;39.90;;;;;;5071158;28;20056;-74
2022/03/13 08:57:34;;;;;;;4.07;3.67;;;14.10;39.80;;;;;;5070814;28;20045;-72
2022/03/13 09:00:03;;;;;;;4.88;4.38;;;14.10;39.80;;;;;;5072082;28;20381;-72
2022/03/13 09:02:29;;;;;;;5.15;4.05;;;14.10;39.70;;;;;;5070702;28;20044;-72
2022/03/13 09:04:55;;;;;;;4.95;3.70;;;14.10;39.70;;;;;;5072161;28;20048;-74
2022/03/13 09:07:20;;;;;;;5.22;4.72;;;14.20;39.70;;;;;;5070998;28;20082;-68
2022/03/13 09:09:49;;;;;;;4.13;3.75;;;14.20;39.60;;;;;;5072216;28;20043;-74
2022/03/13 09:12:16;;;;;;;4.25;3.67;;;14.20;39.60;;;;;;5070637;28;20476;-74
2022/03/13 09:14:41;;;;;;;4.90;4.35;;;14.20;39.50;;;;;;5070653;28;20507;-72
2022/03/13 09:17:07;;;;;;;4.32;3.78;;;14.20;39.40;;;;;;5071717;28;20032;-66
2022/03/13 09:19:33;;;;;;;5.18;3.78;;;14.20;39.40;;;;;;5071893;28;20041;-73
2022/03/13 09:21:58;;;;;;;5.68;4.43;;;14.20;39.30;;;;;;5070514;28;20425;-72
2022/03/13 09:24:24;;;;;;;5.80;4.57;;;14.20;39.30;;;;;;5071895;28;20037;-73
2022/03/13 09:26:50;;;;;;;4.90;3.78;;;14.20;39.30;;;;;;5071374;28;20102;-74
2022/03/13 09:29:15;;;;;;;4.43;4.00;;;14.20;39.20;;;;;;5071859;28;20040;-73
2022/03/13 09:31:41;;;;;;;3.38;3.08;;;14.20;39.20;;;;;;5071626;28;20035;-72
2022/03/13 09:34:07;;;;;;;5.05;4.22;;;14.30;39.20;;;;;;5070804;28;20041;-74
2022/03/13 09:36:36;;;;;;;4.60;4.05;;;14.30;39.20;;;;;;5071809;28;20124;-72
2022/03/13 09:39:04;;;;;;;5.00;4.28;;;14.30;39.10;;;;;;5070679;28;20044;-72
2022/03/13 09:41:29;;;;;;;4.13;3.72;;;14.30;39.10;;;;;;5070333;28;20626;-72
2022/03/13 09:43:55;;;;;;;5.30;4.28;;;14.30;39.10;;;;;;5070257;28;20132;-73
2022/03/13 09:46:20;;;;;;;4.30;4.00;;;14.30;39.00;;;;;;5070638;28;20050;-74
2022/03/13 09:48:49;;;;;;;3.72;3.42;;;14.30;39.00;;;;;;5075461;28;20044;-72
2022/03/13 09:51:18;;;;;;;4.97;4.40;;;14.30;38.90;;;;;;5074440;28;20121;-74
2022/03/13 09:53:44;;;;;;;5.30;3.95;;;14.30;38.90;;;;;;5074507;28;20044;-74
2022/03/13 09:56:09;;;;;;;4.97;4.13;;;14.30;38.90;;;;;;5075572;28;20369;-74
2022/03/13 09:58:39;;;;;;;4.85;3.88;;;14.40;38.90;;;;;;5074759;28;20032;-74
2022/03/13 10:01:08;;;;;;;5.20;3.75;;;14.40;38.80;;;;;;5075298;28;20054;-72
2022/03/13 10:03:34;;;;;;;5.88;3.90;;;14.40;38.80;;;;;;5075315;28;20555;-74
2022/03/13 10:06:03;;;;;;;4.13;3.60;;;14.40;38.70;;;;;;5073706;28;20120;-73
2022/03/13 10:08:31;;;;;;;4.43;3.90;;;14.40;38.70;;;;;;5073804;28;20480;-74
2022/03/13 10:10:58;;;;;;;4.80;4.15;;;14.40;38.60;;;;;;5073862;28;20090;-74
2022/03/13 10:16:22;;;;;;;3.88;3.45;;;14.50;38.60;;;;;;5130225;27;20386;-74
2022/03/13 10:18:48;;;;;;;5.10;3.88;;;14.50;38.40;;;;;;5128928;28;20509;-74
2022/03/13 10:21:17;;;;;;;4.65;4.13;;;14.50;38.40;;;;;;5129168;28;20035;-73
2022/03/13 10:23:43;;;;;;;4.35;3.95;;;14.60;38.40;;;;;;5128829;28;20514;-72
2022/03/13 10:26:09;;;;;;;6.32;4.82;;;14.60;38.40;;;;;;5130211;27;20035;-74
2022/03/13 10:28:37;;;;;;;8.18;5.75;;;14.60;38.30;;;;;;5128795;28;20653;-74
2022/03/13 10:36:45;;;;;;;6.68;5.15;;;14.70;38.40;;;;;;5130336;27;20928;-72
2022/03/13 10:39:18;;;;;;;5.65;5.05;;;14.80;38.20;;;;;;5130292;27;20048;-72
2022/03/13 10:41:45;;;;;;;4.82;4.43;;;14.90;38.00;;;;;;5129249;28;20072;-69
2022/03/13 10:44:17;;;;;;;5.65;5.07;;;14.90;38.00;;;;;;5129153;27;20457;-71
2022/03/13 10:46:46;;;;;;;5.63;5.05;;;15.00;37.90;;;;;;5129213;28;20123;-72
2022/03/13 10:49:13;;;;;;;4.75;4.35;;;15.00;37.80;;;;;;5129994;27;20471;-70
2022/03/13 10:51:45;;;;;;;5.53;4.68;;;15.10;37.80;;;;;;5129061;28;20429;-65
2022/03/13 10:54:34;;;;;;;6.15;5.38;;;15.10;38.50;;;;;;5130218;27;20036;-72
2022/03/13 10:59:45;;;;;;;4.85;4.40;;;15.20;37.70;;;;;;5130388;27;20345;-70
2022/03/13 11:04:55;;;;;;;8.43;6.00;;;15.20;37.50;;;;;;5130286;27;20941;-72
2022/03/13 11:07:22;;;;;;;5.55;5.03;;;15.20;37.50;;;;;;5129310;28;20071;-72
2022/03/13 11:09:48;;;;;;;6.03;5.43;;;15.30;37.50;;;;;;5128916;28;20035;-72
2022/03/13 11:12:20;;;;;;;6.10;4.55;;;15.30;37.50;;;;;;5129232;28;20065;-72
2022/03/13 11:14:49;;;;;;;6.43;5.68;;;15.30;37.50;;;;;;5128998;28;20444;-72
2022/03/13 11:17:18;;;;;;;6.15;5.55;;;15.30;37.60;;;;;;5128853;28;20077;-72
2022/03/13 11:19:47;;;;;;;6.13;5.05;;;15.30;37.50;;;;;;5128809;28;20142;-72
2022/03/13 11:22:16;;;;;;;8.23;7.13;;;15.40;37.50;;;;;;5129979;27;20070;-72
2022/03/13 11:24:47;;;;;;;8.35;7.15;;;15.30;37.50;;;;;;5129165;27;20050;-72
2022/03/13 11:27:15;;;;;;;7.72;6.93;;;15.30;37.50;;;;;;5128453;28;20118;-73
2022/03/13 11:29:43;;;;;;;7.93;7.13;;;15.40;37.60;;;;;;5128618;28;20046;-68
2022/03/13 11:45:54;;;;;;;8.38;6.30;;;15.40;37.70;;;;;;5153022;27;1160228;-70
2022/03/13 11:51:04;;;;;;;7.50;6.53;;;15.40;37.90;;;;;;5130203;27;20357;-72
2022/03/13 11:59:15;;;;;;;6.20;5.55;;;15.40;37.80;;;;;;5130426;27;20402;-65
2022/03/13 12:01:41;;;;;;;8.05;7.25;;;15.50;37.90;;;;;;5130165;27;20085;-66
2022/03/13 12:06:52;;;;;;;7.90;6.80;;;15.50;38.00;;;;;;5089437;28;20738;-71
2022/03/13 12:09:26;;;;;;;8.88;7.53;;;15.50;38.50;;;;;;5088351;28;20043;-72
2022/03/13 12:15:01;;;;;;;7.43;6.65;;;15.50;38.20;;;;;;5130361;27;20419;-73
2022/03/13 12:17:29;;;;;;;8.30;6.82;;;15.50;38.30;;;;;;5128946;28;20049;-71
2022/03/13 12:19:57;;;;;;;7.50;6.80;;;15.50;38.10;;;;;;5129000;28;20050;-73
2022/03/13 12:22:25;;;;;;;8.15;7.35;;;15.50;38.10;;;;;;5129048;28;20039;-74
2022/03/13 12:24:53;;;;;;;8.23;7.15;;;15.50;38.10;;;;;;5129197;28;20039;-74
2022/03/13 12:27:23;;;;;;;9.43;7.18;;;15.60;38.30;;;;;;5128725;28;20050;-72
2022/03/13 12:29:55;;;;;;;7.25;6.35;;;15.60;38.20;;;;;;5130095;27;20493;-72
2022/03/13 12:32:26;;;;;;;7.85;6.70;;;15.60;38.10;;;;;;5129808;27;20386;-72
2022/03/13 12:34:54;;;;;;;7.88;6.93;;;15.60;38.10;;;;;;5129944;27;20042;-74
2022/03/13 12:37:20;;;;;;;7.85;6.75;;;15.60;38.00;;;;;;5128537;28;20044;-74
2022/03/13 12:39:48;;;;;;;7.13;6.38;;;15.60;38.10;;;;;;5128581;28;20042;-70
2022/03/13 12:42:22;;;;;;;8.25;7.45;;;15.70;38.20;;;;;;5128792;28;20092;-72
2022/03/13 12:45:08;;;;;;;8.95;7.95;;;15.60;38.30;;;;;;5128183;28;20043;-72
2022/03/13 12:47:39;;;;;;;7.35;6.10;;;15.70;38.50;;;;;;5128539;28;20036;-74
2022/03/13 12:50:08;;;;;;;7.32;6.28;;;15.70;38.20;;;;;;5128322;28;20471;-73
2022/03/13 12:52:37;;;;;;;5.95;5.28;;;15.70;38.10;;;;;;5128221;28;20122;-72
2022/03/13 12:55:15;;;;;;;5.32;4.82;;;15.70;38.00;;;;;;5128051;28;20067;-67
2022/03/13 12:57:40;;;;;;;7.10;6.40;;;15.70;37.80;;;;;;5129540;28;20395;-72
2022/03/13 13:00:09;;;;;;;7.00;6.30;;;15.80;37.90;;;;;;5129424;28;20043;-72
2022/03/13 13:02:36;;;;;;;5.50;4.90;;;15.80;38.10;;;;;;5128713;28;20039;-74
2022/03/13 13:05:06;;;;;;;7.32;4.95;;;15.80;37.90;;;;;;5128295;28;20058;-73
2022/03/13 13:07:35;;;;;;;6.15;5.22;;;15.80;37.80;;;;;;5128087;28;20039;-72
2022/03/13 13:10:03;;;;;;;6.50;5.78;;;15.80;37.70;;;;;;5129119;28;20035;-72
2022/03/13 13:12:33;;;;;;;5.70;5.10;;;15.80;37.80;;;;;;5128872;28;20047;-72
2022/03/13 13:15:01;;;;;;;6.15;5.55;;;15.80;37.90;;;;;;5127828;28;20048;-73
2022/03/13 13:17:29;;;;;;;6.80;5.43;;;15.80;37.80;;;;;;5127862;28;20047;-74
2022/03/13 13:19:58;;;;;;;6.75;5.13;;;15.90;37.80;;;;;;5127743;28;20077;-73
2022/03/13 13:22:29;;;;;;;5.57;4.93;;;15.90;37.70;;;;;;5129047;27;20039;-73
2022/03/13 13:24:58;;;;;;;5.85;5.07;;;15.90;37.60;;;;;;5119775;28;20039;-74
2022/03/13 13:30:29;;;;;;;5.20;4.30;;;15.90;37.70;;;;;;5127627;27;1845679;-73
2022/03/13 13:35:54;;;;;;;5.10;4.47;;;15.90;37.50;;;;;;5130242;27;20432;-72
2022/03/13 13:41:03;;;;;;;4.53;4.13;;;16.00;37.60;;;;;;5130195;27;20354;-72
2022/03/13 13:46:18;;;;;;;4.78;3.85;;;16.00;37.70;;;;;;5089606;28;20417;-74